createdAt,value
2022-11-25T00:01:25.620Z,22.33
2022-11-25T00:03:55.356Z,22.77
2022-11-25T00:06:26.690Z,25.13
2022-11-25T00:09:00.896Z,23.60
2022-11-25T00:11:28.748Z,25.67
2022-11-25T00:13:57.865Z,25.10
2022-11-25T00:16:27.149Z,26.63
2022-11-25T00:18:56.411Z,25.70
2022-11-25T00:21:30.276Z,26.63
2022-11-25T00:24:03.109Z,25.87
2022-11-25T00:26:33.261Z,27.83
2022-11-25T00:29:03.579Z,26.70
2022-11-25T00:31:34.696Z,26.93
2022-11-25T00:34:02.608Z,27.43
2022-11-25T00:36:36.291Z,62.63
2022-11-25T00:41:53.543Z,31.23
2022-11-25T00:44:38.273Z,29.57
2022-11-25T00:47:17.836Z,27.67
2022-11-25T00:49:53.970Z,24.47
2022-11-25T00:52:25.245Z,24.77
2022-11-25T00:54:53.661Z,43.80
2022-11-25T00:57:23.864Z,31.03
2022-11-25T00:59:51.589Z,24.67
2022-11-25T01:02:20.045Z,23.50
2022-11-25T01:04:47.978Z,23.97
2022-11-25T01:07:15.875Z,23.43
2022-11-25T01:09:43.351Z,24.03
2022-11-25T01:12:10.563Z,22.40
2022-11-25T01:14:38.433Z,23.67
2022-11-25T01:17:05.693Z,22.27
2022-11-25T01:19:33.005Z,22.97
2022-11-25T01:22:00.787Z,23.87
2022-11-25T01:24:28.248Z,24.27
2022-11-25T01:26:56.442Z,23.87
2022-11-25T01:29:24.217Z,26.53
2022-11-25T01:31:51.756Z,26.33
2022-11-25T01:34:22.170Z,25.37
2022-11-25T01:36:49.845Z,24.40
2022-11-25T01:39:28.409Z,24.73
2022-11-25T01:41:59.375Z,24.70
2022-11-25T01:44:31.931Z,27.03
2022-11-25T01:47:02.243Z,25.77
2022-11-25T01:49:43.474Z,27.37
2022-11-25T01:52:21.664Z,26.13
2022-11-25T01:54:57.538Z,28.00
2022-11-25T01:57:37.351Z,26.67
2022-11-25T02:00:08.364Z,24.23
2022-11-25T02:02:35.631Z,29.13
2022-11-25T02:05:07.410Z,26.70
2022-11-25T02:07:40.321Z,26.57
2022-11-25T02:10:22.301Z,24.95
2022-11-25T02:12:51.134Z,27.73
2022-11-25T02:15:18.613Z,25.20
2022-11-25T02:17:46.670Z,27.43
2022-11-25T02:20:24.429Z,29.37
2022-11-25T02:23:07.481Z,29.93
2022-11-25T02:25:40.777Z,27.50
2022-11-25T02:28:17.231Z,29.45
2022-11-25T02:30:46.419Z,24.73
2022-11-25T02:33:14.602Z,24.37
2022-11-25T02:35:50.559Z,27.23
2022-11-25T02:38:23.986Z,30.20
2022-11-25T02:40:54.113Z,28.05
2022-11-25T02:43:21.698Z,26.60
2022-11-25T02:45:58.101Z,27.03
2022-11-25T02:48:46.147Z,27.03
2022-11-25T02:51:17.361Z,28.33
2022-11-25T02:53:45.057Z,27.97
2022-11-25T02:56:13.325Z,27.83
2022-11-25T02:58:41.844Z,28.03
2022-11-25T03:01:10.302Z,26.03
2022-11-25T03:03:38.533Z,29.80
2022-11-25T03:06:06.047Z,25.97
2022-11-25T03:08:33.732Z,25.90
2022-11-25T03:11:01.011Z,26.87
2022-11-25T03:13:28.868Z,27.37
2022-11-25T03:15:56.556Z,26.13
2022-11-25T03:18:23.921Z,26.87
2022-11-25T03:20:54.951Z,28.20
2022-11-25T03:23:22.744Z,30.27
2022-11-25T03:25:50.499Z,29.17
2022-11-25T03:28:18.113Z,30.43
2022-11-25T03:30:45.606Z,30.97
2022-11-25T03:33:12.901Z,29.60
2022-11-25T03:35:40.161Z,31.00
2022-11-25T03:38:07.330Z,28.37
2022-11-25T03:40:34.627Z,32.40
2022-11-25T03:43:02.079Z,30.90
2022-11-25T03:45:29.588Z,31.17
2022-11-25T03:47:57.630Z,33.40
2022-11-25T03:50:24.749Z,30.83
2022-11-25T03:52:51.948Z,31.50
2022-11-25T03:55:19.348Z,33.13
2022-11-25T03:57:46.645Z,30.63
2022-11-25T04:00:14.298Z,32.93
2022-11-25T04:02:41.582Z,30.70
2022-11-25T04:05:09.394Z,33.73
2022-11-25T04:07:36.821Z,34.07
2022-11-25T04:10:04.799Z,31.40
2022-11-25T04:12:47.130Z,31.40
2022-11-25T04:15:16.780Z,31.47
2022-11-25T04:17:44.294Z,32.57
2022-11-25T04:20:13.851Z,31.83
2022-11-25T04:22:41.879Z,32.80
2022-11-25T04:25:10.120Z,35.53
2022-11-25T04:27:37.524Z,31.47
2022-11-25T04:30:06.436Z,34.80
2022-11-25T04:32:33.806Z,30.83
2022-11-25T04:35:01.183Z,33.87
2022-11-25T04:37:28.415Z,31.03
2022-11-25T04:39:55.815Z,31.30
2022-11-25T04:42:37.050Z,34.97
2022-11-25T04:45:22.628Z,34.53
2022-11-25T04:47:50.938Z,31.90
2022-11-25T04:50:21.857Z,32.50
2022-11-25T04:52:49.662Z,34.83
2022-11-25T04:55:17.099Z,33.57
2022-11-25T04:57:44.383Z,32.83
2022-11-25T05:00:12.257Z,32.07
2022-11-25T05:02:39.742Z,34.30
2022-11-25T05:05:07.779Z,32.07
2022-11-25T05:07:35.238Z,30.83
2022-11-25T05:10:02.718Z,32.87
2022-11-25T05:12:30.250Z,32.93
2022-11-25T05:14:57.841Z,33.73
2022-11-25T05:17:28.256Z,33.03
2022-11-25T05:19:55.996Z,34.57
2022-11-25T05:22:26.813Z,32.10
2022-11-25T05:24:54.651Z,36.97
2022-11-25T05:27:22.849Z,25.70
2022-11-25T05:29:55.667Z,25.60
2022-11-25T05:32:23.928Z,29.38
2022-11-25T05:34:51.533Z,28.73
2022-11-25T05:37:23.925Z,30.53
2022-11-25T05:39:51.166Z,26.90
2022-11-25T05:42:18.331Z,27.27
2022-11-25T05:44:45.855Z,26.87
2022-11-25T05:47:13.079Z,23.90
2022-11-25T05:49:40.368Z,30.47
2022-11-25T05:52:07.848Z,31.00
2022-11-25T05:54:35.553Z,31.10
2022-11-25T05:57:02.987Z,31.20
2022-11-25T05:59:30.673Z,26.97
2022-11-25T06:01:58.434Z,29.93
2022-11-25T06:04:25.560Z,24.13
2022-11-25T06:06:52.722Z,23.60
2022-11-25T06:09:20.171Z,25.13
2022-11-25T06:11:47.816Z,23.50
2022-11-25T06:14:18.242Z,24.57
2022-11-25T06:16:45.023Z,24.03
2022-11-25T06:19:13.343Z,22.67
2022-11-25T06:21:40.882Z,23.20
2022-11-25T06:24:07.664Z,25.37
2022-11-25T06:26:34.454Z,23.27
2022-11-25T06:29:01.327Z,25.97
2022-11-25T06:31:28.606Z,26.13
2022-11-25T06:33:56.332Z,26.67
2022-11-25T06:36:23.387Z,26.93
2022-11-25T06:38:53.230Z,24.03
2022-11-25T06:41:22.152Z,24.90
2022-11-25T06:43:49.665Z,24.97
2022-11-25T06:46:24.363Z,23.90
2022-11-25T06:48:52.678Z,24.07
2022-11-25T06:51:20.255Z,24.37
2022-11-25T06:53:47.374Z,24.07
2022-11-25T06:56:23.351Z,23.27
2022-11-25T06:58:50.895Z,23.90
2022-11-25T07:01:21.185Z,25.67
2022-11-25T07:03:51.181Z,24.40
2022-11-25T07:06:19.172Z,24.63
2022-11-25T07:08:48.344Z,24.93
2022-11-25T07:11:27.413Z,26.23
2022-11-25T07:14:03.766Z,24.53
2022-11-25T07:16:32.136Z,25.27
2022-11-25T07:19:02.560Z,24.57
2022-11-25T07:21:30.971Z,23.57
2022-11-25T07:24:00.538Z,23.73
2022-11-25T07:26:31.228Z,24.80
2022-11-25T07:29:00.518Z,23.53
2022-11-25T07:31:34.233Z,21.13
2022-11-25T07:34:07.366Z,23.07
2022-11-25T07:36:36.135Z,22.47
2022-11-25T07:39:06.789Z,23.37
2022-11-25T07:41:33.875Z,23.53
2022-11-25T07:44:03.384Z,25.23
2022-11-25T07:46:36.591Z,24.00
2022-11-25T07:49:07.660Z,25.77
2022-11-25T07:51:40.790Z,26.57
2022-11-25T07:54:10.595Z,24.33
2022-11-25T07:56:40.225Z,23.87
2022-11-25T07:59:15.454Z,24.53
2022-11-25T08:01:43.702Z,23.50
2022-11-25T08:04:16.606Z,26.40
2022-11-25T08:06:48.890Z,23.98
2022-11-25T08:09:19.435Z,25.57
2022-11-25T08:11:47.440Z,27.00
2022-11-25T08:14:15.338Z,25.02
2022-11-25T08:16:42.740Z,27.58
2022-11-25T08:19:14.013Z,28.58
2022-11-25T08:21:41.605Z,27.23
2022-11-25T08:24:13.171Z,30.02
2022-11-25T08:26:40.798Z,30.23
2022-11-25T08:29:09.784Z,28.80
2022-11-25T08:31:38.224Z,29.33
2022-11-25T08:34:07.063Z,30.67
2022-11-25T08:36:36.379Z,28.88
2022-11-25T08:39:29.087Z,34.72
2022-11-25T08:41:54.508Z,31.52
2022-11-25T08:44:21.083Z,32.15
2022-11-25T08:46:48.235Z,31.23
2022-11-25T08:49:18.230Z,37.22
2022-11-25T08:51:45.835Z,30.95
2022-11-25T08:54:12.451Z,36.22
2022-11-25T08:56:39.759Z,32.22
2022-11-25T08:59:07.149Z,34.28
2022-11-25T09:01:34.504Z,33.80
2022-11-25T09:04:02.378Z,35.85
2022-11-25T09:06:30.457Z,35.95
2022-11-25T09:09:00.542Z,33.30
2022-11-25T09:11:28.422Z,35.30
2022-11-25T09:13:56.200Z,35.80
2022-11-25T09:16:24.353Z,33.70
2022-11-25T09:18:56.092Z,33.30
2022-11-25T09:21:25.476Z,36.55
2022-11-25T09:23:55.378Z,34.72
2022-11-25T09:26:32.138Z,35.42
2022-11-25T09:28:59.714Z,38.40
2022-11-25T09:31:26.511Z,32.53
2022-11-25T09:33:54.037Z,34.95
2022-11-25T09:36:23.641Z,32.28
2022-11-25T09:38:52.023Z,33.75
2022-11-25T09:41:49.550Z,33.90
2022-11-25T09:44:53.545Z,30.52
2022-11-25T09:47:36.936Z,32.58
2022-11-25T09:50:07.015Z,33.13
2022-11-25T09:52:36.188Z,33.95
2022-11-25T09:55:18.239Z,32.40
2022-11-25T09:58:19.817Z,30.20
2022-11-25T10:00:50.101Z,32.80
2022-11-25T10:03:42.107Z,37.70
2022-11-25T10:06:09.109Z,36.65
2022-11-25T10:08:40.543Z,32.47
2022-11-25T10:11:19.093Z,35.08
2022-11-25T10:13:53.341Z,37.80
2022-11-25T10:16:36.688Z,39.88
2022-11-25T10:19:19.647Z,38.25
2022-11-25T10:21:47.096Z,34.17
2022-11-25T10:24:18.202Z,30.33
2022-11-25T10:26:49.641Z,37.20
2022-11-25T10:29:37.188Z,30.60
2022-11-25T10:32:29.916Z,45.92
2022-11-25T10:35:02.650Z,39.75
2022-11-25T10:37:40.108Z,35.38
2022-11-25T10:40:13.951Z,29.88
2022-11-25T10:42:41.626Z,31.70
2022-11-25T10:45:09.293Z,28.40
2022-11-25T10:48:01.833Z,29.45
2022-11-25T10:50:38.278Z,27.65
2022-11-25T10:53:18.767Z,31.48
2022-11-25T10:56:04.717Z,30.60
2022-11-25T10:58:33.608Z,29.33
2022-11-25T11:01:06.560Z,30.65
2022-11-25T11:03:34.362Z,32.83
2022-11-25T11:06:01.669Z,32.15
2022-11-25T11:08:39.086Z,39.80
2022-11-25T11:11:21.650Z,34.28
2022-11-25T11:13:51.254Z,33.38
2022-11-25T11:16:43.468Z,30.63
2022-11-25T11:19:29.691Z,27.35
2022-11-25T11:22:14.336Z,30.85
2022-11-25T11:24:42.929Z,31.23
2022-11-25T11:27:25.506Z,71.68
2022-11-25T11:30:33.073Z,39.13
2022-11-25T11:33:38.829Z,40.10
2022-11-25T11:36:17.301Z,34.97
2022-11-25T11:38:57.687Z,36.92
2022-11-25T11:41:47.962Z,37.40
2022-11-25T11:44:25.166Z,35.42
2022-11-25T11:47:34.036Z,35.85
2022-11-25T11:50:30.094Z,37.60
2022-11-25T11:53:29.060Z,32.90
2022-11-25T11:59:22.063Z,30.23
2022-11-25T12:02:10.155Z,28.23
2022-11-25T12:04:44.451Z,39.72
2022-11-25T12:07:30.294Z,29.52
2022-11-25T12:10:02.726Z,27.15
2022-11-25T12:12:42.254Z,29.65
2022-11-25T12:15:33.034Z,28.35
2022-11-25T12:18:05.196Z,28.05
2022-11-25T12:20:41.940Z,28.85
2022-11-25T12:23:24.466Z,30.65
2022-11-25T12:25:58.075Z,28.95
2022-11-25T12:28:34.756Z,27.08
2022-11-25T12:31:22.872Z,30.33
2022-11-25T12:34:13.946Z,30.50
2022-11-25T12:36:43.810Z,30.73
2022-11-25T12:39:43.023Z,28.00
2022-11-25T12:42:26.629Z,31.58
2022-11-25T12:45:00.638Z,28.65
2022-11-25T12:47:27.680Z,28.13
2022-11-25T12:49:55.934Z,28.23
2022-11-25T12:52:44.139Z,30.52
2022-11-25T12:55:28.300Z,26.67
2022-11-25T12:58:17.597Z,47.00
2022-11-25T13:01:02.053Z,37.30
2022-11-25T13:04:01.450Z,35.05
2022-11-25T13:07:06.310Z,32.83
2022-11-25T13:10:24.807Z,34.58
2022-11-25T13:13:22.459Z,33.88
2022-11-25T13:15:54.696Z,41.25
2022-11-25T13:18:31.662Z,61.35
2022-11-25T13:21:08.287Z,48.15
2022-11-25T13:23:58.951Z,42.53
2022-11-25T13:26:37.372Z,35.67
2022-11-25T13:29:27.015Z,41.25
2022-11-25T13:31:59.985Z,36.92
2022-11-25T13:34:37.056Z,31.70
2022-11-25T13:37:36.992Z,36.33
2022-11-25T13:40:26.372Z,38.70
2022-11-25T13:42:55.784Z,41.83
2022-11-25T13:45:33.368Z,37.72
2022-11-25T13:48:26.332Z,68.03
2022-11-25T13:51:18.980Z,46.42
2022-11-25T13:54:05.065Z,56.40
2022-11-25T13:56:37.975Z,61.55
2022-11-25T13:59:10.748Z,55.75
2022-11-25T14:01:52.957Z,39.55
2022-11-25T14:05:14.363Z,64.65
2022-11-25T14:08:11.700Z,50.53
2022-11-25T14:10:46.434Z,54.60
2022-11-25T14:13:28.001Z,59.35
2022-11-25T14:16:07.102Z,56.95
2022-11-25T14:24:44.476Z,28.50
2022-11-25T14:27:21.478Z,31.13
2022-11-25T14:30:00.968Z,28.45
2022-11-25T14:32:58.026Z,28.33
2022-11-25T14:35:40.089Z,26.73
2022-11-25T14:38:19.633Z,24.88
2022-11-25T14:41:06.441Z,27.23
2022-11-25T14:43:42.620Z,37.17
2022-11-25T14:46:14.136Z,38.80
2022-11-25T14:48:41.877Z,38.90
2022-11-25T14:51:11.527Z,40.67
2022-11-25T14:53:48.909Z,33.22
2022-11-25T14:56:25.945Z,30.33
2022-11-25T14:58:54.919Z,26.67
2022-11-25T15:01:26.986Z,27.13
2022-11-25T15:04:08.519Z,25.02
2022-11-25T15:06:38.122Z,24.92
2022-11-25T15:12:21.715Z,42.53
2022-11-25T15:14:56.679Z,64.55
2022-11-25T15:17:29.480Z,29.98
2022-11-25T15:20:18.894Z,27.03
2022-11-25T15:22:52.293Z,29.00
2022-11-25T15:25:19.760Z,27.30
2022-11-25T15:27:50.235Z,27.27
2022-11-25T15:30:23.914Z,27.55
2022-11-25T15:35:23.329Z,61.50
2022-11-25T15:37:50.307Z,30.80
2022-11-25T15:40:43.315Z,30.38
2022-11-25T15:43:25.244Z,28.90
2022-11-25T15:46:01.132Z,30.27
2022-11-25T15:48:36.191Z,26.40
2022-11-25T15:51:07.709Z,29.88
2022-11-25T15:53:38.258Z,29.50
2022-11-25T15:56:07.489Z,31.73
2022-11-25T15:58:36.106Z,37.00
2022-11-25T16:01:08.005Z,35.50
2022-11-25T16:03:35.994Z,35.53
2022-11-25T16:06:03.009Z,50.08
2022-11-25T16:08:35.051Z,42.08
2022-11-25T16:11:19.043Z,42.90
2022-11-25T16:13:48.595Z,53.53
2022-11-25T16:16:35.790Z,69.20
2022-11-25T16:19:02.416Z,69.88
2022-11-25T16:21:35.708Z,74.80
2022-11-25T16:24:06.350Z,70.00
2022-11-25T16:26:51.348Z,64.22
2022-11-25T16:29:41.510Z,59.45
2022-11-25T16:32:17.466Z,68.25
2022-11-25T16:34:44.903Z,61.75
2022-11-25T16:37:12.559Z,53.63
2022-11-25T16:39:39.833Z,46.20
2022-11-25T16:42:08.213Z,45.17
2022-11-25T16:44:37.791Z,45.97
2022-11-25T16:47:04.397Z,44.47
2022-11-25T16:49:32.291Z,45.08
2022-11-25T16:51:59.328Z,40.50
2022-11-25T16:54:26.585Z,34.70
2022-11-25T16:56:55.223Z,29.88
2022-11-25T16:59:32.438Z,31.13
2022-11-25T17:02:00.513Z,30.08
2022-11-25T17:04:28.400Z,30.30
2022-11-25T17:09:45.501Z,30.83
2022-11-25T17:12:20.970Z,27.73
2022-11-25T17:14:49.075Z,113.10
2022-11-25T17:17:24.654Z,63.70
2022-11-25T17:19:52.987Z,55.10
2022-11-25T17:22:22.591Z,60.90
2022-11-25T17:24:49.431Z,52.03
2022-11-25T17:27:25.496Z,49.22
2022-11-25T17:29:53.783Z,34.72
2022-11-25T17:32:21.189Z,41.13
2022-11-25T17:34:48.628Z,60.85
2022-11-25T17:37:25.669Z,42.15
2022-11-25T17:39:53.694Z,33.80
2022-11-25T17:42:28.586Z,31.98
2022-11-25T17:44:55.396Z,33.35
2022-11-25T17:47:22.108Z,38.22
2022-11-25T17:49:49.693Z,38.85
2022-11-25T17:52:16.541Z,38.15
2022-11-25T17:54:43.492Z,38.33
2022-11-25T17:57:17.459Z,36.50
2022-11-25T17:59:44.153Z,36.67
2022-11-25T18:02:22.805Z,38.05
2022-11-25T18:04:49.913Z,44.67
2022-11-25T18:07:18.192Z,44.17
2022-11-25T18:09:45.949Z,48.25
2022-11-25T18:12:31.278Z,54.08
2022-11-25T18:14:58.794Z,53.67
2022-11-25T18:17:26.254Z,58.43
2022-11-25T18:19:55.293Z,59.38
2022-11-25T18:22:24.220Z,73.05
2022-11-25T18:24:51.629Z,71.70
2022-11-25T18:27:27.457Z,72.57
2022-11-25T18:29:56.375Z,75.45
2022-11-25T18:32:24.996Z,70.73
2022-11-25T18:34:52.504Z,63.03
2022-11-25T18:37:20.081Z,57.83
2022-11-25T18:39:47.702Z,52.03
2022-11-25T18:42:27.146Z,47.05
2022-11-25T18:44:58.015Z,46.95
2022-11-25T18:47:25.180Z,45.83
2022-11-25T18:49:56.278Z,40.15
2022-11-25T18:52:24.687Z,39.75
2022-11-25T18:54:52.085Z,39.67
2022-11-25T18:57:19.481Z,41.45
2022-11-25T18:59:52.779Z,38.35
2022-11-25T19:02:34.712Z,42.35
2022-11-25T19:05:03.056Z,39.55
2022-11-25T19:07:29.971Z,39.90
2022-11-25T19:09:56.845Z,45.75
2022-11-25T19:12:24.852Z,45.80
2022-11-25T19:14:52.769Z,48.53
2022-11-25T19:17:22.729Z,45.15
2022-11-25T19:19:49.917Z,45.45
2022-11-25T19:22:19.331Z,47.53
2022-11-25T19:24:49.425Z,42.55
2022-11-25T19:27:23.567Z,42.00
2022-11-25T19:29:52.415Z,41.35
2022-11-25T19:32:25.829Z,43.22
2022-11-25T19:34:57.368Z,42.40
2022-11-25T19:37:24.834Z,45.35
2022-11-25T19:39:53.435Z,47.05
2022-11-25T19:42:20.704Z,43.45
2022-11-25T19:44:48.009Z,41.33
2022-11-25T19:47:26.467Z,44.75
2022-11-25T19:49:56.731Z,45.10
2022-11-25T19:52:31.508Z,42.25
2022-11-25T19:54:58.646Z,41.67
2022-11-25T19:57:25.521Z,45.13
2022-11-25T19:59:53.129Z,42.10
2022-11-25T20:02:26.612Z,44.92
2022-11-25T20:04:56.346Z,46.65
2022-11-25T20:07:23.850Z,50.72
2022-11-25T20:09:52.726Z,51.08
2022-11-25T20:12:26.835Z,49.67
2022-11-25T20:14:53.698Z,51.75
2022-11-25T20:17:29.950Z,47.47
2022-11-25T20:20:00.214Z,44.50
2022-11-25T20:22:31.105Z,41.60
2022-11-25T20:25:01.324Z,44.15
2022-11-25T20:27:28.612Z,42.20
2022-11-25T20:29:56.397Z,42.45
2022-11-25T20:32:31.115Z,41.38
2022-11-25T20:34:58.886Z,40.92
2022-11-25T20:37:29.404Z,38.45
2022-11-25T20:39:58.469Z,37.95
2022-11-25T20:42:26.194Z,39.85
2022-11-25T20:44:57.595Z,38.92
2022-11-25T20:47:26.437Z,34.38
2022-11-25T20:49:53.947Z,38.20
2022-11-25T20:52:28.527Z,42.33
2022-11-25T20:54:57.977Z,40.88
2022-11-25T20:57:27.647Z,38.55
2022-11-25T20:59:54.300Z,46.38
2022-11-25T21:02:21.895Z,41.55
2022-11-25T21:04:49.668Z,47.80
2022-11-25T21:07:18.398Z,41.13
2022-11-25T21:09:45.249Z,37.30
2022-11-25T21:12:19.343Z,37.38
2022-11-25T21:14:47.088Z,42.70
2022-11-25T21:17:14.536Z,39.78
2022-11-25T21:19:41.318Z,42.15
2022-11-25T21:22:13.581Z,39.55
2022-11-25T21:24:43.037Z,38.33
2022-11-25T21:27:15.953Z,39.78
2022-11-25T21:29:45.432Z,41.47
2022-11-25T21:32:30.111Z,43.17
2022-11-25T21:34:57.903Z,39.33
2022-11-25T21:37:36.179Z,42.13
2022-11-25T21:40:04.993Z,39.08
2022-11-25T21:42:34.886Z,36.17
2022-11-25T21:45:01.936Z,37.28
2022-11-25T21:47:30.648Z,38.17
2022-11-25T21:49:58.842Z,40.63
2022-11-25T21:52:25.528Z,38.42
2022-11-25T21:54:52.882Z,38.65
2022-11-25T21:57:28.535Z,35.65
2022-11-25T21:59:56.290Z,39.67
2022-11-25T22:02:25.295Z,43.05
2022-11-25T22:04:53.026Z,43.58
2022-11-25T22:07:20.237Z,44.90
2022-11-25T22:09:47.502Z,44.58
2022-11-25T22:12:40.874Z,43.30
2022-11-25T22:15:16.486Z,42.90
2022-11-25T22:17:45.032Z,41.63
2022-11-25T22:20:25.292Z,40.47
2022-11-25T22:22:52.710Z,40.22
2022-11-25T22:25:20.094Z,42.70
2022-11-25T22:27:47.899Z,40.95
2022-11-25T22:30:19.704Z,40.85
2022-11-25T22:32:49.688Z,38.80
2022-11-25T22:35:21.817Z,43.58
2022-11-25T22:37:54.801Z,40.50
2022-11-25T22:40:24.205Z,41.45
2022-11-25T22:42:52.913Z,39.88
2022-11-25T22:45:35.096Z,38.22
2022-11-25T22:48:06.896Z,38.45
2022-11-25T22:50:34.974Z,38.03
2022-11-25T22:53:02.429Z,40.47
2022-11-25T22:55:32.591Z,38.00
2022-11-25T22:58:01.880Z,38.33
2022-11-25T23:00:32.860Z,41.35
2022-11-25T23:03:01.587Z,40.72
2022-11-25T23:05:40.264Z,38.20
2022-11-25T23:08:17.407Z,68.72
2022-11-25T23:10:45.055Z,55.28
2022-11-25T23:13:12.957Z,57.58
2022-11-25T23:15:45.766Z,44.42
2022-11-25T23:18:16.879Z,42.93
2022-11-25T23:20:43.491Z,38.28
2022-11-25T23:23:17.068Z,41.90
2022-11-25T23:25:45.146Z,44.13
2022-11-25T23:28:12.525Z,39.47
2022-11-25T23:30:44.224Z,42.38
2022-11-25T23:33:18.911Z,42.95
2022-11-25T23:35:46.527Z,39.95
2022-11-25T23:38:22.464Z,41.22
2022-11-25T23:40:49.630Z,39.65
2022-11-25T23:43:18.050Z,45.33
2022-11-25T23:45:51.166Z,41.47
2022-11-25T23:48:21.546Z,42.63
2022-11-25T23:50:49.753Z,37.67
2022-11-25T23:53:29.309Z,36.47
2022-11-25T23:55:55.949Z,37.47
2022-11-25T23:58:23.478Z,36.78
